sensor_id;sensor_type;location;lat;lon;timestamp;pressure;altitude;pressure_sealevel;temperature;humidity
51460;BME280;37534;39.772;2.718;2023-04-26T00:01:46;101129.38;;;16.83;100.00
51460;BME280;37534;39.772;2.718;2023-04-26T00:04:12;101129.78;;;16.74;100.00
51460;BME280;37534;39.772;2.718;2023-04-26T00:06:38;101139.91;;;16.80;100.00
51460;BME280;37534;39.772;2.718;2023-04-26T00:09:03;101126.72;;;16.85;100.00
51460;BME280;37534;39.772;2.718;2023-04-26T00:11:29;101136.72;;;16.94;100.00
51460;BME280;37534;39.772;2.718;2023-04-26T00:13:57;101117.81;;;16.70;100.00
51460;BME280;37534;39.772;2.718;2023-04-26T00:16:23;101142.28;;;16.66;100.00
51460;BME280;37534;39.772;2.718;2023-04-26T00:18:48;101121.75;;;16.60;100.00
51460;BME280;37534;39.772;2.718;2023-04-26T00:21:14;101121.09;;;16.54;100.00
51460;BME280;37534;39.772;2.718;2023-04-26T00:23:39;101111.28;;;16.41;100.00
51460;BME280;37534;39.772;2.718;2023-04-26T00:26:06;101076.97;;;16.12;100.00
51460;BME280;37534;39.772;2.718;2023-04-26T00:28:32;101102.13;;;16.32;100.00
51460;BME280;37534;39.772;2.718;2023-04-26T00:30:57;101090.56;;;16.38;100.00
51460;BME280;37534;39.772;2.718;2023-04-26T00:33:23;101096.97;;;16.30;100.00
51460;BME280;37534;39.772;2.718;2023-04-26T00:35:49;101088.31;;;16.09;100.00
51460;BME280;37534;39.772;2.718;2023-04-26T00:38:14;101089.91;;;16.13;100.00
51460;BME280;37534;39.772;2.718;2023-04-26T00:40:40;101084.44;;;15.99;100.00
51460;BME280;37534;39.772;2.718;2023-04-26T00:43:05;101077.41;;;16.01;100.00
51460;BME280;37534;39.772;2.718;2023-04-26T00:45:31;101078.13;;;16.05;100.00
51460;BME280;37534;39.772;2.718;2023-04-26T00:48:01;101080.63;;;16.08;100.00
51460;BME280;37534;39.772;2.718;2023-04-26T00:50:28;101073.75;;;16.05;100.00
51460;BME280;37534;39.772;2.718;2023-04-26T00:52:54;101065.06;;;16.06;100.00
51460;BME280;37534;39.772;2.718;2023-04-26T00:55:21;101064.00;;;16.10;100.00
51460;BME280;37534;39.772;2.718;2023-04-26T00:57:48;101049.28;;;16.09;100.00
51460;BME280;37534;39.772;2.718;2023-04-26T01:00:14;101050.81;;;16.15;100.00
51460;BME280;37534;39.772;2.718;2023-04-26T01:02:40;101046.69;;;16.09;100.00
51460;BME280;37534;39.772;2.718;2023-04-26T01:05:07;101046.84;;;16.06;100.00
51460;BME280;37534;39.772;2.718;2023-04-26T01:07:34;101056.50;;;16.23;100.00
51460;BME280;37534;39.772;2.718;2023-04-26T01:10:01;101050.50;;;16.21;100.00
51460;BME280;37534;39.772;2.718;2023-04-26T01:12:29;101037.63;;;15.99;100.00
51460;BME280;37534;39.772;2.718;2023-04-26T01:14:56;101047.22;;;15.97;100.00
51460;BME280;37534;39.772;2.718;2023-04-26T01:17:22;101032.59;;;15.94;100.00
51460;BME280;37534;39.772;2.718;2023-04-26T01:19:48;101047.31;;;15.95;100.00
51460;BME280;37534;39.772;2.718;2023-04-26T01:22:14;101044.78;;;15.94;100.00
51460;BME280;37534;39.772;2.718;2023-04-26T01:24:43;101050.38;;;15.85;100.00
51460;BME280;37534;39.772;2.718;2023-04-26T01:27:09;101032.00;;;15.67;100.00
51460;BME280;37534;39.772;2.718;2023-04-26T01:29:34;101027.19;;;15.58;100.00
51460;BME280;37534;39.772;2.718;2023-04-26T01:32:00;101026.25;;;15.59;100.00
51460;BME280;37534;39.772;2.718;2023-04-26T01:34:26;101028.03;;;15.58;100.00
51460;BME280;37534;39.772;2.718;2023-04-26T01:36:51;101026.56;;;15.72;100.00
51460;BME280;37534;39.772;2.718;2023-04-26T01:39:17;101030.78;;;15.76;100.00
51460;BME280;37534;39.772;2.718;2023-04-26T01:41:42;101023.41;;;15.65;100.00
51460;BME280;37534;39.772;2.718;2023-04-26T01:44:08;101013.59;;;15.51;100.00
51460;BME280;37534;39.772;2.718;2023-04-26T01:46:33;101034.34;;;15.53;100.00
51460;BME280;37534;39.772;2.718;2023-04-26T01:48:59;101040.53;;;15.49;100.00
51460;BME280;37534;39.772;2.718;2023-04-26T01:51:25;101028.19;;;15.33;100.00
51460;BME280;37534;39.772;2.718;2023-04-26T01:53:51;101040.88;;;15.41;100.00
51460;BME280;37534;39.772;2.718;2023-04-26T01:56:18;101048.22;;;15.52;100.00
51460;BME280;37534;39.772;2.718;2023-04-26T01:58:44;101047.06;;;15.59;100.00
51460;BME280;37534;39.772;2.718;2023-04-26T02:01:09;101037.94;;;15.49;100.00
51460;BME280;37534;39.772;2.718;2023-04-26T02:03:35;101042.63;;;15.61;100.00
51460;BME280;37534;39.772;2.718;2023-04-26T02:06:02;101040.81;;;15.63;100.00
51460;BME280;37534;39.772;2.718;2023-04-26T02:08:27;101047.84;;;15.61;100.00
51460;BME280;37534;39.772;2.718;2023-04-26T02:10:53;101052.38;;;15.56;100.00
51460;BME280;37534;39.772;2.718;2023-04-26T02:13:19;101049.84;;;15.54;100.00
51460;BME280;37534;39.772;2.718;2023-04-26T02:15:48;101054.22;;;15.54;100.00
51460;BME280;37534;39.772;2.718;2023-04-26T02:18:14;101050.94;;;15.49;100.00
51460;BME280;37534;39.772;2.718;2023-04-26T02:20:40;101051.72;;;15.51;100.00
51460;BME280;37534;39.772;2.718;2023-04-26T02:23:08;101059.47;;;15.52;100.00
51460;BME280;37534;39.772;2.718;2023-04-26T02:25:34;101072.28;;;15.57;100.00
51460;BME280;37534;39.772;2.718;2023-04-26T02:27:59;101057.00;;;15.49;100.00
51460;BME280;37534;39.772;2.718;2023-04-26T02:30:26;101046.53;;;15.51;100.00
51460;BME280;37534;39.772;2.718;2023-04-26T02:32:53;101067.00;;;15.81;100.00
51460;BME280;37534;39.772;2.718;2023-04-26T02:35:19;101070.38;;;15.83;100.00
51460;BME280;37534;39.772;2.718;2023-04-26T02:37:44;101072.34;;;15.77;100.00
51460;BME280;37534;39.772;2.718;2023-04-26T02:40:14;101068.00;;;15.56;100.00
51460;BME280;37534;39.772;2.718;2023-04-26T02:42:40;101053.22;;;15.36;100.00
51460;BME280;37534;39.772;2.718;2023-04-26T02:45:06;101060.16;;;15.35;100.00
51460;BME280;37534;39.772;2.718;2023-04-26T02:47:32;101059.09;;;15.19;100.00
51460;BME280;37534;39.772;2.718;2023-04-26T02:49:57;101055.69;;;15.17;100.00
51460;BME280;37534;39.772;2.718;2023-04-26T02:52:23;101060.38;;;15.09;100.00
51460;BME280;37534;39.772;2.718;2023-04-26T02:54:49;101062.28;;;15.04;100.00
51460;BME280;37534;39.772;2.718;2023-04-26T02:57:15;101058.00;;;15.02;100.00
51460;BME280;37534;39.772;2.718;2023-04-26T02:59:40;101070.75;;;15.09;100.00
51460;BME280;37534;39.772;2.718;2023-04-26T03:02:06;101050.34;;;14.99;100.00
51460;BME280;37534;39.772;2.718;2023-04-26T03:04:32;101037.97;;;15.05;100.00
51460;BME280;37534;39.772;2.718;2023-04-26T03:07:02;101060.25;;;15.12;100.00
51460;BME280;37534;39.772;2.718;2023-04-26T03:09:31;101065.31;;;15.15;100.00
51460;BME280;37534;39.772;2.718;2023-04-26T03:11:58;101062.09;;;15.30;100.00
51460;BME280;37534;39.772;2.718;2023-04-26T03:14:24;101039.44;;;15.34;100.00
51460;BME280;37534;39.772;2.718;2023-04-26T03:16:49;101038.72;;;15.51;100.00
51460;BME280;37534;39.772;2.718;2023-04-26T03:19:15;101046.19;;;16.01;100.00
51460;BME280;37534;39.772;2.718;2023-04-26T03:21:41;101068.88;;;16.18;100.00
51460;BME280;37534;39.772;2.718;2023-04-26T03:24:06;101054.69;;;16.44;100.00
51460;BME280;37534;39.772;2.718;2023-04-26T03:26:32;101070.41;;;16.62;100.00
51460;BME280;37534;39.772;2.718;2023-04-26T03:28:58;101061.47;;;16.67;100.00
51460;BME280;37534;39.772;2.718;2023-04-26T03:31:23;101074.56;;;16.66;100.00
51460;BME280;37534;39.772;2.718;2023-04-26T03:33:49;101062.72;;;16.59;100.00
51460;BME280;37534;39.772;2.718;2023-04-26T03:36:14;101067.72;;;16.82;100.00
51460;BME280;37534;39.772;2.718;2023-04-26T03:38:41;101043.31;;;16.85;100.00
51460;BME280;37534;39.772;2.718;2023-04-26T03:41:07;101058.97;;;16.85;100.00
51460;BME280;37534;39.772;2.718;2023-04-26T03:43:33;101057.47;;;16.79;100.00
51460;BME280;37534;39.772;2.718;2023-04-26T03:45:59;101067.88;;;16.79;100.00
51460;BME280;37534;39.772;2.718;2023-04-26T03:48:25;101067.22;;;17.12;100.00
51460;BME280;37534;39.772;2.718;2023-04-26T03:50:52;101054.81;;;17.17;100.00
51460;BME280;37534;39.772;2.718;2023-04-26T03:53:17;101054.97;;;17.14;100.00
51460;BME280;37534;39.772;2.718;2023-04-26T03:55:43;101057.38;;;17.36;100.00
51460;BME280;37534;39.772;2.718;2023-04-26T03:58:09;101061.56;;;17.21;100.00
51460;BME280;37534;39.772;2.718;2023-04-26T04:00:38;101073.69;;;17.22;100.00
51460;BME280;37534;39.772;2.718;2023-04-26T04:03:06;101081.06;;;17.32;100.00
51460;BME280;37534;39.772;2.718;2023-04-26T04:05:31;101070.63;;;17.32;100.00
51460;BME280;37534;39.772;2.718;2023-04-26T04:07:57;101075.44;;;17.04;100.00
51460;BME280;37534;39.772;2.718;2023-04-26T04:10:23;101081.78;;;16.99;100.00
51460;BME280;37534;39.772;2.718;2023-04-26T04:12:50;101075.22;;;16.90;100.00
51460;BME280;37534;39.772;2.718;2023-04-26T04:15:16;101072.63;;;16.90;100.00
51460;BME280;37534;39.772;2.718;2023-04-26T04:17:43;101071.06;;;16.86;100.00
51460;BME280;37534;39.772;2.718;2023-04-26T04:20:09;101086.50;;;16.90;100.00
51460;BME280;37534;39.772;2.718;2023-04-26T04:22:35;101076.84;;;16.92;100.00
51460;BME280;37534;39.772;2.718;2023-04-26T04:25:00;101083.81;;;16.92;100.00
51460;BME280;37534;39.772;2.718;2023-04-26T04:27:29;101085.09;;;16.83;100.00
51460;BME280;37534;39.772;2.718;2023-04-26T04:29:54;101084.28;;;16.81;100.00
51460;BME280;37534;39.772;2.718;2023-04-26T04:32:20;101075.19;;;16.71;100.00
51460;BME280;37534;39.772;2.718;2023-04-26T04:34:48;101070.72;;;16.94;100.00
51460;BME280;37534;39.772;2.718;2023-04-26T04:37:15;101076.16;;;17.25;100.00
51460;BME280;37534;39.772;2.718;2023-04-26T04:39:41;101089.94;;;17.64;100.00
51460;BME280;37534;39.772;2.718;2023-04-26T04:42:06;101093.72;;;18.11;100.00
51460;BME280;37534;39.772;2.718;2023-04-26T04:44:32;101088.94;;;18.52;97.86
51460;BME280;37534;39.772;2.718;2023-04-26T04:46:58;101087.16;;;18.69;96.19
51460;BME280;37534;39.772;2.718;2023-04-26T04:49:23;101092.38;;;18.53;100.00
51460;BME280;37534;39.772;2.718;2023-04-26T04:51:50;101094.28;;;18.33;100.00
51460;BME280;37534;39.772;2.718;2023-04-26T04:54:17;101086.38;;;18.01;100.00
51460;BME280;37534;39.772;2.718;2023-04-26T04:56:43;101091.63;;;17.82;100.00
51460;BME280;37534;39.772;2.718;2023-04-26T04:59:10;101086.81;;;17.75;100.00
51460;BME280;37534;39.772;2.718;2023-04-26T05:01:36;101100.59;;;17.59;100.00
51460;BME280;37534;39.772;2.718;2023-04-26T05:04:03;101112.41;;;17.49;100.00
51460;BME280;37534;39.772;2.718;2023-04-26T05:06:29;101105.97;;;17.56;100.00
51460;BME280;37534;39.772;2.718;2023-04-26T05:08:58;101118.09;;;17.57;100.00
51460;BME280;37534;39.772;2.718;2023-04-26T05:11:24;101126.34;;;17.48;100.00
51460;BME280;37534;39.772;2.718;2023-04-26T05:13:49;101116.53;;;17.36;100.00
51460;BME280;37534;39.772;2.718;2023-04-26T05:16:15;101141.00;;;17.33;100.00
51460;BME280;37534;39.772;2.718;2023-04-26T05:18:41;101129.53;;;17.18;100.00
51460;BME280;37534;39.772;2.718;2023-04-26T05:21:07;101142.06;;;17.10;100.00
51460;BME280;37534;39.772;2.718;2023-04-26T05:23:33;101132.88;;;16.82;100.00
51460;BME280;37534;39.772;2.718;2023-04-26T05:26:06;101148.69;;;16.98;100.00
51460;BME280;37534;39.772;2.718;2023-04-26T05:28:32;101151.66;;;16.90;100.00
51460;BME280;37534;39.772;2.718;2023-04-26T05:30:59;101140.59;;;16.85;100.00
51460;BME280;37534;39.772;2.718;2023-04-26T05:33:26;101150.09;;;16.86;100.00
51460;BME280;37534;39.772;2.718;2023-04-26T05:35:52;101135.75;;;16.76;100.00
51460;BME280;37534;39.772;2.718;2023-04-26T05:38:19;101149.75;;;16.94;100.00
51460;BME280;37534;39.772;2.718;2023-04-26T05:40:45;101169.75;;;16.94;100.00
51460;BME280;37534;39.772;2.718;2023-04-26T05:43:12;101169.31;;;16.84;100.00
51460;BME280;37534;39.772;2.718;2023-04-26T05:45:38;101164.03;;;16.85;100.00
51460;BME280;37534;39.772;2.718;2023-04-26T05:48:04;101175.28;;;16.86;100.00
51460;BME280;37534;39.772;2.718;2023-04-26T05:50:29;101170.94;;;16.86;100.00
51460;BME280;37534;39.772;2.718;2023-04-26T05:52:55;101166.19;;;16.76;100.00
51460;BME280;37534;39.772;2.718;2023-04-26T05:55:21;101184.63;;;16.91;100.00
51460;BME280;37534;39.772;2.718;2023-04-26T05:57:46;101197.16;;;16.83;100.00
51460;BME280;37534;39.772;2.718;2023-04-26T06:00:13;101188.88;;;16.73;100.00
51460;BME280;37534;39.772;2.718;2023-04-26T06:02:40;101198.34;;;16.75;100.00
51460;BME280;37534;39.772;2.718;2023-04-26T06:05:05;101205.53;;;16.69;100.00
51460;BME280;37534;39.772;2.718;2023-04-26T06:07:31;101197.13;;;16.63;100.00
51460;BME280;37534;39.772;2.718;2023-04-26T06:09:59;101215.25;;;16.66;100.00
51460;BME280;37534;39.772;2.718;2023-04-26T06:12:26;101204.44;;;16.54;100.00
51460;BME280;37534;39.772;2.718;2023-04-26T06:14:51;101201.00;;;16.54;100.00
51460;BME280;37534;39.772;2.718;2023-04-26T06:17:17;101203.91;;;16.67;100.00
51460;BME280;37534;39.772;2.718;2023-04-26T06:19:42;101217.84;;;16.86;100.00
51460;BME280;37534;39.772;2.718;2023-04-26T06:22:08;101224.38;;;16.97;100.00
51460;BME280;37534;39.772;2.718;2023-04-26T06:24:34;101218.16;;;16.99;100.00
51460;BME280;37534;39.772;2.718;2023-04-26T06:26:59;101230.72;;;17.10;100.00
51460;BME280;37534;39.772;2.718;2023-04-26T06:29:25;101231.56;;;17.29;100.00
51460;BME280;37534;39.772;2.718;2023-04-26T06:31:50;101232.34;;;17.51;100.00
51460;BME280;37534;39.772;2.718;2023-04-26T06:34:16;101258.59;;;17.84;100.00
51460;BME280;37534;39.772;2.718;2023-04-26T06:36:41;101248.59;;;17.94;100.00
51460;BME280;37534;39.772;2.718;2023-04-26T06:39:07;101264.06;;;18.16;100.00
51460;BME280;37534;39.772;2.718;2023-04-26T06:41:32;101267.59;;;18.32;100.00
51460;BME280;37534;39.772;2.718;2023-04-26T06:43:58;101274.03;;;18.60;100.00
51460;BME280;37534;39.772;2.718;2023-04-26T06:46:23;101261.59;;;18.83;100.00
51460;BME280;37534;39.772;2.718;2023-04-26T06:48:52;101259.09;;;18.97;100.00
51460;BME280;37534;39.772;2.718;2023-04-26T06:51:18;101270.06;;;19.21;100.00
51460;BME280;37534;39.772;2.718;2023-04-26T06:53:43;101255.63;;;19.30;100.00
51460;BME280;37534;39.772;2.718;2023-04-26T06:56:09;101244.91;;;19.34;100.00
51460;BME280;37534;39.772;2.718;2023-04-26T06:58:34;101267.19;;;19.57;100.00
51460;BME280;37534;39.772;2.718;2023-04-26T07:01:00;101266.72;;;19.67;100.00
51460;BME280;37534;39.772;2.718;2023-04-26T07:03:26;101280.75;;;19.82;100.00
51460;BME280;37534;39.772;2.718;2023-04-26T07:05:54;101286.81;;;19.98;100.00
51460;BME280;37534;39.772;2.718;2023-04-26T07:08:20;101278.34;;;20.09;100.00
51460;BME280;37534;39.772;2.718;2023-04-26T07:10:46;101275.97;;;20.20;100.00
51460;BME280;37534;39.772;2.718;2023-04-26T07:13:11;101283.88;;;20.35;100.00
51460;BME280;37534;39.772;2.718;2023-04-26T07:15:37;101281.75;;;20.41;100.00
51460;BME280;37534;39.772;2.718;2023-04-26T07:18:02;101280.13;;;20.39;100.00
51460;BME280;37534;39.772;2.718;2023-04-26T07:20:28;101298.34;;;20.56;100.00
51460;BME280;37534;39.772;2.718;2023-04-26T07:22:53;101281.44;;;20.62;100.00
51460;BME280;37534;39.772;2.718;2023-04-26T07:25:19;101292.97;;;20.74;100.00
51460;BME280;37534;39.772;2.718;2023-04-26T07:27:45;101302.75;;;20.86;100.00
51460;BME280;37534;39.772;2.718;2023-04-26T07:30:10;101308.81;;;21.01;100.00
51460;BME280;37534;39.772;2.718;2023-04-26T07:32:36;101298.50;;;21.12;100.00
51460;BME280;37534;39.772;2.718;2023-04-26T07:35:05;101306.69;;;21.22;100.00
51460;BME280;37534;39.772;2.718;2023-04-26T07:37:32;101304.53;;;21.29;100.00
51460;BME280;37534;39.772;2.718;2023-04-26T07:39:57;101309.09;;;21.39;100.00
51460;BME280;37534;39.772;2.718;2023-04-26T07:42:24;101291.00;;;21.35;100.00
51460;BME280;37534;39.772;2.718;2023-04-26T07:44:49;101305.34;;;21.43;100.00
51460;BME280;37534;39.772;2.718;2023-04-26T07:47:15;101303.31;;;21.49;100.00
51460;BME280;37534;39.772;2.718;2023-04-26T07:49:41;101297.66;;;21.55;100.00
51460;BME280;37534;39.772;2.718;2023-04-26T07:52:09;101301.22;;;21.68;100.00
51460;BME280;37534;39.772;2.718;2023-04-26T07:54:35;101299.22;;;21.72;100.00
51460;BME280;37534;39.772;2.718;2023-04-26T07:57:01;101302.09;;;21.81;100.00
51460;BME280;37534;39.772;2.718;2023-04-26T07:59:26;101311.09;;;21.92;100.00
51460;BME280;37534;39.772;2.718;2023-04-26T08:01:52;101310.59;;;21.99;100.00
51460;BME280;37534;39.772;2.718;2023-04-26T08:04:29;101290.63;;;21.97;100.00
51460;BME280;37534;39.772;2.718;2023-04-26T08:06:56;101304.84;;;22.07;100.00
51460;BME280;37534;39.772;2.718;2023-04-26T08:09:22;101309.69;;;22.13;100.00
51460;BME280;37534;39.772;2.718;2023-04-26T08:11:48;101305.84;;;22.19;100.00
51460;BME280;37534;39.772;2.718;2023-04-26T08:14:13;101314.38;;;22.23;100.00
51460;BME280;37534;39.772;2.718;2023-04-26T08:16:39;101316.50;;;22.30;100.00
51460;BME280;37534;39.772;2.718;2023-04-26T08:19:05;101317.34;;;22.31;100.00
51460;BME280;37534;39.772;2.718;2023-04-26T08:21:31;101320.50;;;22.36;100.00
51460;BME280;37534;39.772;2.718;2023-04-26T08:23:57;101321.34;;;22.36;100.00
51460;BME280;37534;39.772;2.718;2023-04-26T08:26:22;101331.66;;;22.39;100.00
51460;BME280;37534;39.772;2.718;2023-04-26T08:28:48;101330.84;;;22.39;100.00
51460;BME280;37534;39.772;2.718;2023-04-26T08:31:13;101351.38;;;22.59;100.00
51460;BME280;37534;39.772;2.718;2023-04-26T08:33:39;101352.59;;;22.81;100.00
51460;BME280;37534;39.772;2.718;2023-04-26T08:36:05;101353.84;;;22.88;100.00
51460;BME280;37534;39.772;2.718;2023-04-26T08:38:30;101358.81;;;23.06;100.00
51460;BME280;37534;39.772;2.718;2023-04-26T08:40:58;101359.56;;;23.33;98.16
51460;BME280;37534;39.772;2.718;2023-04-26T08:43:27;101362.66;;;23.64;96.69
51460;BME280;37534;39.772;2.718;2023-04-26T08:45:53;101356.91;;;23.96;90.77
51460;BME280;37534;39.772;2.718;2023-04-26T08:48:19;101358.72;;;24.20;89.03
51460;BME280;37534;39.772;2.718;2023-04-26T08:50:47;101356.25;;;24.41;88.90
51460;BME280;37534;39.772;2.718;2023-04-26T08:53:14;101358.09;;;24.52;85.66
51460;BME280;37534;39.772;2.718;2023-04-26T08:55:46;101356.75;;;24.59;84.77
51460;BME280;37534;39.772;2.718;2023-04-26T08:58:12;101348.34;;;24.65;83.77
51460;BME280;37534;39.772;2.718;2023-04-26T09:00:37;101362.56;;;24.86;83.50
51460;BME280;37534;39.772;2.718;2023-04-26T09:03:03;101361.63;;;24.99;83.47
51460;BME280;37534;39.772;2.718;2023-04-26T09:05:28;101346.50;;;25.01;81.15
51460;BME280;37534;39.772;2.718;2023-04-26T09:07:59;101360.66;;;25.11;81.56
51460;BME280;37534;39.772;2.718;2023-04-26T09:10:26;101370.06;;;25.38;80.04
51460;BME280;37534;39.772;2.718;2023-04-26T09:12:52;101362.16;;;25.60;78.50
51460;BME280;37534;39.772;2.718;2023-04-26T09:15:20;101362.56;;;25.88;77.98
51460;BME280;37534;39.772;2.718;2023-04-26T09:17:47;101367.81;;;26.11;76.20
51460;BME280;37534;39.772;2.718;2023-04-26T09:22:50;101360.78;;;26.53;72.71
51460;BME280;37534;39.772;2.718;2023-04-26T09:25:18;101381.19;;;26.74;71.70
51460;BME280;37534;39.772;2.718;2023-04-26T09:27:45;101373.59;;;26.69;70.75
51460;BME280;37534;39.772;2.718;2023-04-26T09:30:15;101372.13;;;26.77;71.01
51460;BME280;37534;39.772;2.718;2023-04-26T09:32:45;101371.72;;;27.02;70.20
51460;BME280;37534;39.772;2.718;2023-04-26T09:35:41;101373.47;;;27.13;69.97
51460;BME280;37534;39.772;2.718;2023-04-26T09:38:09;101379.13;;;27.29;68.26
51460;BME280;37534;39.772;2.718;2023-04-26T09:40:43;101381.91;;;27.07;68.46
51460;BME280;37534;39.772;2.718;2023-04-26T09:43:16;101372.91;;;27.19;67.60
51460;BME280;37534;39.772;2.718;2023-04-26T09:45:53;101374.53;;;27.10;67.59
51460;BME280;37534;39.772;2.718;2023-04-26T09:48:22;101382.94;;;27.16;67.73
51460;BME280;37534;39.772;2.718;2023-04-26T09:50:55;101389.97;;;27.26;66.98
51460;BME280;37534;39.772;2.718;2023-04-26T09:58:33;101388.38;;;27.14;66.17
51460;BME280;37534;39.772;2.718;2023-04-26T10:00:59;101392.13;;;27.33;65.20
51460;BME280;37534;39.772;2.718;2023-04-26T10:03:25;101391.44;;;27.40;64.23
51460;BME280;37534;39.772;2.718;2023-04-26T10:05:51;101388.56;;;27.53;64.56
51460;BME280;37534;39.772;2.718;2023-04-26T10:08:18;101382.88;;;27.58;63.49
51460;BME280;37534;39.772;2.718;2023-04-26T10:10:44;101380.47;;;27.55;62.07
51460;BME280;37534;39.772;2.718;2023-04-26T10:13:10;101375.34;;;27.63;61.69
51460;BME280;37534;39.772;2.718;2023-04-26T10:15:38;101372.00;;;27.61;61.65
51460;BME280;37534;39.772;2.718;2023-04-26T10:18:04;101383.00;;;27.97;62.22
51460;BME280;37534;39.772;2.718;2023-04-26T10:20:29;101375.16;;;28.05;59.38
51460;BME280;37534;39.772;2.718;2023-04-26T10:22:57;101367.38;;;28.33;58.86
51460;BME280;37534;39.772;2.718;2023-04-26T10:25:39;101378.28;;;28.59;56.90
51460;BME280;37534;39.772;2.718;2023-04-26T10:28:06;101376.28;;;28.71;56.22
51460;BME280;37534;39.772;2.718;2023-04-26T10:30:32;101370.97;;;28.71;56.07
51460;BME280;37534;39.772;2.718;2023-04-26T10:35:24;101381.53;;;29.19;55.67
51460;BME280;37534;39.772;2.718;2023-04-26T10:38:11;101376.84;;;29.59;53.84
51460;BME280;37534;39.772;2.718;2023-04-26T10:40:37;101376.78;;;29.79;52.46
51460;BME280;37534;39.772;2.718;2023-04-26T10:45:35;101382.44;;;30.11;50.55
51460;BME280;37534;39.772;2.718;2023-04-26T10:48:19;101383.38;;;30.38;50.50
51460;BME280;37534;39.772;2.718;2023-04-26T10:59:11;101373.50;;;31.01;47.43
51460;BME280;37534;39.772;2.718;2023-04-26T11:01:38;101368.53;;;31.06;46.83
51460;BME280;37534;39.772;2.718;2023-04-26T11:04:10;101367.66;;;31.32;45.70
51460;BME280;37534;39.772;2.718;2023-04-26T11:06:53;101365.94;;;31.57;46.29
51460;BME280;37534;39.772;2.718;2023-04-26T11:09:40;101359.38;;;31.43;45.48
51460;BME280;37534;39.772;2.718;2023-04-26T11:12:13;101367.16;;;31.62;44.27
51460;BME280;37534;39.772;2.718;2023-04-26T11:14:43;101358.63;;;31.24;45.45
51460;BME280;37534;39.772;2.718;2023-04-26T11:17:11;101357.47;;;31.61;44.59
51460;BME280;37534;39.772;2.718;2023-04-26T11:19:37;101351.69;;;31.82;43.68
51460;BME280;37534;39.772;2.718;2023-04-26T11:22:06;101350.34;;;31.95;42.42
51460;BME280;37534;39.772;2.718;2023-04-26T11:24:33;101337.19;;;31.93;42.31
51460;BME280;37534;39.772;2.718;2023-04-26T11:27:07;101332.31;;;31.72;42.19
51460;BME280;37534;39.772;2.718;2023-04-26T11:29:33;101337.00;;;31.87;42.17
51460;BME280;37534;39.772;2.718;2023-04-26T11:31:58;101338.44;;;31.56;42.49
51460;BME280;37534;39.772;2.718;2023-04-26T11:34:36;101337.72;;;31.46;42.76
51460;BME280;37534;39.772;2.718;2023-04-26T11:37:04;101331.13;;;31.67;42.02
51460;BME280;37534;39.772;2.718;2023-04-26T11:39:33;101335.66;;;31.66;41.01
51460;BME280;37534;39.772;2.718;2023-04-26T11:42:06;101326.81;;;31.74;41.38
51460;BME280;37534;39.772;2.718;2023-04-26T11:44:33;101326.28;;;31.54;40.96
51460;BME280;37534;39.772;2.718;2023-04-26T11:47:02;101310.06;;;31.47;41.30
51460;BME280;37534;39.772;2.718;2023-04-26T11:49:29;101334.38;;;31.36;41.92
51460;BME280;37534;39.772;2.718;2023-04-26T11:51:56;101322.53;;;31.38;42.44
51460;BME280;37534;39.772;2.718;2023-04-26T11:54:29;101330.38;;;31.40;41.65
51460;BME280;37534;39.772;2.718;2023-04-26T11:56:57;101329.03;;;31.44;41.49
51460;BME280;37534;39.772;2.718;2023-04-26T11:59:24;101322.75;;;31.11;42.28
51460;BME280;37534;39.772;2.718;2023-04-26T12:01:50;101314.94;;;31.17;41.97
51460;BME280;37534;39.772;2.718;2023-04-26T12:04:16;101311.09;;;30.85;42.54
51460;BME280;37534;39.772;2.718;2023-04-26T12:06:44;101321.97;;;30.40;43.19
51460;BME280;37534;39.772;2.718;2023-04-26T12:09:09;101321.75;;;30.85;43.17
51460;BME280;37534;39.772;2.718;2023-04-26T12:11:39;101321.19;;;31.00;43.95
51460;BME280;37534;39.772;2.718;2023-04-26T12:14:05;101320.28;;;31.17;43.23
51460;BME280;37534;39.772;2.718;2023-04-26T12:16:35;101321.75;;;31.12;43.18
51460;BME280;37534;39.772;2.718;2023-04-26T12:19:06;101320.59;;;31.06;43.07
51460;BME280;37534;39.772;2.718;2023-04-26T12:21:42;101322.22;;;30.99;43.31
51460;BME280;37534;39.772;2.718;2023-04-26T12:26:48;101317.25;;;31.12;43.13
51460;BME280;37534;39.772;2.718;2023-04-26T12:29:13;101309.94;;;31.14;43.46
51460;BME280;37534;39.772;2.718;2023-04-26T12:31:39;101319.91;;;31.04;43.31
51460;BME280;37534;39.772;2.718;2023-04-26T12:34:04;101325.44;;;30.84;43.78
51460;BME280;37534;39.772;2.718;2023-04-26T12:36:30;101320.22;;;30.30;43.58
51460;BME280;37534;39.772;2.718;2023-04-26T12:38:55;101310.97;;;29.81;45.64
51460;BME280;37534;39.772;2.718;2023-04-26T12:41:22;101316.25;;;29.63;46.45
51460;BME280;37534;39.772;2.718;2023-04-26T12:43:48;101297.72;;;29.53;47.83
51460;BME280;37534;39.772;2.718;2023-04-26T12:46:14;101303.03;;;29.53;47.42
51460;BME280;37534;39.772;2.718;2023-04-26T12:48:39;101317.38;;;29.60;47.23
51460;BME280;37534;39.772;2.718;2023-04-26T12:51:05;101300.75;;;29.58;47.17
51460;BME280;37534;39.772;2.718;2023-04-26T12:53:31;101286.22;;;29.70;46.80
51460;BME280;37534;39.772;2.718;2023-04-26T12:55:56;101308.78;;;29.94;46.75
51460;BME280;37534;39.772;2.718;2023-04-26T12:58:22;101320.38;;;29.75;46.33
51460;BME280;37534;39.772;2.718;2023-04-26T13:00:48;101305.25;;;29.75;46.63
51460;BME280;37534;39.772;2.718;2023-04-26T13:03:15;101314.19;;;29.56;46.01
51460;BME280;37534;39.772;2.718;2023-04-26T13:05:41;101313.59;;;29.63;46.02